createdAt,value
2022-11-24T00:01:15.473Z,9.38
2022-11-24T00:03:47.631Z,9.98
2022-11-24T00:06:16.136Z,12.43
2022-11-24T00:08:45.203Z,12.50
2022-11-24T00:11:18.138Z,14.18
2022-11-24T00:13:45.703Z,13.57
2022-11-24T00:16:33.936Z,13.23
2022-11-24T00:19:02.637Z,12.68
2022-11-24T00:21:31.355Z,13.60
2022-11-24T00:23:59.394Z,12.70
2022-11-24T00:26:30.859Z,13.68
2022-11-24T00:29:00.387Z,13.88
2022-11-24T00:31:29.595Z,13.25
2022-11-24T00:33:58.602Z,14.25
2022-11-24T00:36:27.699Z,14.02
2022-11-24T00:38:59.729Z,13.15
2022-11-24T00:41:27.592Z,12.30
2022-11-24T00:43:54.895Z,13.15
2022-11-24T00:46:23.175Z,14.15
2022-11-24T00:48:50.609Z,13.50
2022-11-24T00:51:19.026Z,13.98
2022-11-24T00:53:45.877Z,13.82
2022-11-24T00:56:13.660Z,14.18
2022-11-24T00:58:40.505Z,14.07
2022-11-24T01:01:11.378Z,13.45
2022-11-24T01:03:38.445Z,14.18
2022-11-24T01:06:25.971Z,15.35
2022-11-24T01:08:53.097Z,14.27
2022-11-24T01:11:23.342Z,13.75
2022-11-24T01:13:54.943Z,14.45
2022-11-24T01:16:23.599Z,14.27
2022-11-24T01:18:50.810Z,15.10
2022-11-24T01:21:18.638Z,13.98
2022-11-24T01:23:45.739Z,13.63
2022-11-24T01:26:15.857Z,11.45
2022-11-24T01:28:47.219Z,13.77
2022-11-24T01:31:16.868Z,13.45
2022-11-24T01:33:43.846Z,12.52
2022-11-24T01:36:10.794Z,13.43
2022-11-24T01:38:37.581Z,12.32
2022-11-24T01:41:16.598Z,12.65
2022-11-24T01:43:45.205Z,12.15
2022-11-24T01:46:19.026Z,11.50
2022-11-24T01:49:18.625Z,10.70
2022-11-24T01:51:59.124Z,11.10
2022-11-24T01:54:30.433Z,10.75
2022-11-24T01:57:07.637Z,9.52
2022-11-24T01:59:34.697Z,8.13
2022-11-24T02:02:02.276Z,8.93
2022-11-24T02:04:33.225Z,9.82
2022-11-24T02:07:03.410Z,8.18
2022-11-24T02:09:43.055Z,8.10
2022-11-24T02:12:09.981Z,7.82
2022-11-24T02:14:38.476Z,7.93
2022-11-24T02:17:05.313Z,8.27
2022-11-24T02:19:41.224Z,7.65
2022-11-24T02:22:18.529Z,7.68
2022-11-24T02:24:52.034Z,7.65
2022-11-24T02:27:20.022Z,7.22
2022-11-24T02:29:47.798Z,7.28
2022-11-24T02:32:16.165Z,8.73
2022-11-24T02:34:42.948Z,9.35
2022-11-24T02:37:09.845Z,9.40
2022-11-24T02:39:36.766Z,9.43
2022-11-24T02:42:08.105Z,9.43
2022-11-24T02:44:40.201Z,8.63
2022-11-24T02:47:09.832Z,8.05
2022-11-24T02:49:36.980Z,7.45
2022-11-24T02:52:04.820Z,8.05
2022-11-24T02:54:32.394Z,8.55
2022-11-24T02:56:59.785Z,9.13
2022-11-24T02:59:26.887Z,8.15
2022-11-24T03:01:53.808Z,8.70
2022-11-24T03:04:20.824Z,8.52
2022-11-24T03:06:47.776Z,7.35
2022-11-24T03:09:14.842Z,6.70
2022-11-24T03:11:41.728Z,6.90
2022-11-24T03:14:08.929Z,6.95
2022-11-24T03:16:36.251Z,6.80
2022-11-24T03:19:03.503Z,7.78
2022-11-24T03:21:30.414Z,8.35
2022-11-24T03:23:57.575Z,8.00
2022-11-24T03:26:25.850Z,7.55
2022-11-24T03:28:56.268Z,8.15
2022-11-24T03:31:24.287Z,7.85
2022-11-24T03:33:51.222Z,7.07
2022-11-24T03:36:18.208Z,8.65
2022-11-24T03:38:45.619Z,7.30
2022-11-24T03:41:12.708Z,6.80
2022-11-24T03:43:43.697Z,6.70
2022-11-24T03:46:12.150Z,6.63
2022-11-24T03:48:39.443Z,6.65
2022-11-24T03:51:06.401Z,6.25
2022-11-24T03:53:33.926Z,6.07
2022-11-24T03:56:02.180Z,5.22
2022-11-24T03:58:30.057Z,5.13
2022-11-24T04:00:57.378Z,5.32
2022-11-24T04:03:24.564Z,5.38
2022-11-24T04:05:51.977Z,6.00
2022-11-24T04:08:19.170Z,5.60
2022-11-24T04:10:51.208Z,5.70
2022-11-24T04:13:24.614Z,5.60
2022-11-24T04:15:52.014Z,5.80
2022-11-24T04:18:19.109Z,5.75
2022-11-24T04:20:48.746Z,6.50
2022-11-24T04:23:15.548Z,6.80
2022-11-24T04:25:43.693Z,7.10
2022-11-24T04:28:12.022Z,7.40
2022-11-24T04:30:40.209Z,7.18
2022-11-24T04:33:07.088Z,6.22
2022-11-24T04:35:35.148Z,6.43
2022-11-24T04:38:05.245Z,6.00
2022-11-24T04:40:32.177Z,5.53
2022-11-24T04:42:58.972Z,5.22
2022-11-24T04:45:25.808Z,5.10
2022-11-24T04:47:52.723Z,4.70
2022-11-24T04:50:19.534Z,4.60
2022-11-24T04:52:46.332Z,4.50
2022-11-24T04:55:13.116Z,4.70
2022-11-24T04:57:40.079Z,4.22
2022-11-24T05:00:08.009Z,4.60
2022-11-24T05:02:34.982Z,3.90
2022-11-24T05:05:01.886Z,4.00
2022-11-24T05:07:29.111Z,3.72
2022-11-24T05:10:14.791Z,3.38
2022-11-24T05:12:42.429Z,3.50
2022-11-24T05:15:11.557Z,4.40
2022-11-24T05:17:39.206Z,4.13
2022-11-24T05:20:07.161Z,4.07
2022-11-24T05:22:34.106Z,5.35
2022-11-24T05:25:01.692Z,5.95
2022-11-24T05:27:28.533Z,6.03
2022-11-24T05:29:55.339Z,5.20
2022-11-24T05:32:22.101Z,5.38
2022-11-24T05:34:49.415Z,5.13
2022-11-24T05:37:16.678Z,4.45
2022-11-24T05:39:43.492Z,3.95
2022-11-24T05:42:28.739Z,3.83
2022-11-24T05:44:55.720Z,3.80
2022-11-24T05:47:22.628Z,3.70
2022-11-24T05:49:49.437Z,3.05
2022-11-24T05:52:17.151Z,2.72
2022-11-24T05:54:44.040Z,3.08
2022-11-24T05:57:10.771Z,3.30
2022-11-24T05:59:37.515Z,2.95
2022-11-24T06:02:04.573Z,2.72
2022-11-24T06:04:31.850Z,2.72
2022-11-24T06:06:58.854Z,2.53
2022-11-24T06:09:25.595Z,2.67
2022-11-24T06:11:52.352Z,2.53
2022-11-24T06:14:19.200Z,2.88
2022-11-24T06:16:46.032Z,3.50
2022-11-24T06:19:13.061Z,3.90
2022-11-24T06:21:40.001Z,4.20
2022-11-24T06:24:07.243Z,4.25
2022-11-24T06:26:34.174Z,4.28
2022-11-24T06:29:01.487Z,3.72
2022-11-24T06:31:28.297Z,3.28
2022-11-24T06:33:55.061Z,3.88
2022-11-24T06:36:21.849Z,4.20
2022-11-24T06:38:48.661Z,4.15
2022-11-24T06:41:16.887Z,3.70
2022-11-24T06:43:45.033Z,3.88
2022-11-24T06:46:12.539Z,3.20
2022-11-24T06:48:39.386Z,3.50
2022-11-24T06:51:08.642Z,3.72
2022-11-24T06:53:38.265Z,3.33
2022-11-24T06:56:13.748Z,3.25
2022-11-24T06:58:44.922Z,3.00
2022-11-24T07:01:23.018Z,3.00
2022-11-24T07:03:50.967Z,2.80
2022-11-24T07:06:18.915Z,2.83
2022-11-24T07:08:46.022Z,2.70
2022-11-24T07:11:16.434Z,2.28
2022-11-24T07:13:43.817Z,2.42
2022-11-24T07:16:16.756Z,2.72
2022-11-24T07:18:44.852Z,2.85
2022-11-24T07:21:12.555Z,2.72
2022-11-24T07:23:39.521Z,3.30
2022-11-24T07:26:07.617Z,3.15
2022-11-24T07:28:36.506Z,3.17
2022-11-24T07:31:11.224Z,3.38
2022-11-24T07:36:06.958Z,3.53
2022-11-24T07:38:34.828Z,3.88
2022-11-24T07:41:05.952Z,3.60
2022-11-24T07:43:34.115Z,3.88
2022-11-24T07:46:01.751Z,2.97
2022-11-24T07:48:28.597Z,3.35
2022-11-24T07:50:56.416Z,3.35
2022-11-24T07:53:23.526Z,3.58
2022-11-24T07:55:55.593Z,2.90
2022-11-24T07:58:23.325Z,3.20
2022-11-24T08:00:51.510Z,3.75
2022-11-24T08:03:18.414Z,3.35
2022-11-24T08:08:44.197Z,2.53
2022-11-24T08:11:13.550Z,2.42
2022-11-24T08:13:40.922Z,2.30
2022-11-24T08:16:13.684Z,2.20
2022-11-24T08:18:41.050Z,2.22
2022-11-24T08:21:11.332Z,2.50
2022-11-24T08:23:38.279Z,2.72
2022-11-24T08:26:13.859Z,2.88
2022-11-24T08:28:40.612Z,2.67
2022-11-24T08:31:11.287Z,2.67
2022-11-24T08:33:38.965Z,2.40
2022-11-24T08:36:19.372Z,3.10
2022-11-24T08:38:47.109Z,2.58
2022-11-24T08:41:16.321Z,2.55
2022-11-24T08:43:43.465Z,3.10
2022-11-24T08:46:13.172Z,3.00
2022-11-24T08:48:40.593Z,2.30
2022-11-24T08:51:10.235Z,2.45
2022-11-24T08:53:38.277Z,3.20
2022-11-24T08:56:06.259Z,2.80
2022-11-24T08:58:33.546Z,3.60
2022-11-24T09:01:11.688Z,3.30
2022-11-24T09:03:41.244Z,2.47
2022-11-24T09:06:11.939Z,3.28
2022-11-24T09:08:39.119Z,2.40
2022-11-24T09:11:11.505Z,1.90
2022-11-24T09:13:39.222Z,2.17
2022-11-24T09:16:11.869Z,2.03
2022-11-24T09:18:39.179Z,2.50
2022-11-24T09:21:11.234Z,2.17
2022-11-24T09:23:38.904Z,3.40
2022-11-24T09:26:10.050Z,2.67
2022-11-24T09:28:37.250Z,3.22
2022-11-24T09:31:05.765Z,2.90
2022-11-24T09:33:33.668Z,3.65
2022-11-24T09:36:01.351Z,2.70
2022-11-24T09:38:28.570Z,3.10
2022-11-24T09:40:56.105Z,2.50
2022-11-24T09:43:30.018Z,2.20
2022-11-24T09:46:20.002Z,2.63
2022-11-24T09:48:51.219Z,2.30
2022-11-24T09:51:28.688Z,2.17
2022-11-24T09:54:06.175Z,2.33
2022-11-24T09:56:35.552Z,2.40
2022-11-24T09:59:21.589Z,2.63
2022-11-24T10:01:49.868Z,2.65
2022-11-24T10:04:42.024Z,1.98
2022-11-24T10:07:11.907Z,3.15
2022-11-24T10:09:44.808Z,2.58
2022-11-24T10:12:27.470Z,3.15
2022-11-24T10:15:31.868Z,2.28
2022-11-24T10:18:16.996Z,3.03
2022-11-24T10:21:29.525Z,2.72
2022-11-24T10:24:23.527Z,3.00
2022-11-24T10:27:22.028Z,2.85
2022-11-24T10:29:51.757Z,3.28
2022-11-24T10:32:36.646Z,2.58
2022-11-24T10:35:16.048Z,2.70
2022-11-24T10:38:25.540Z,2.60
2022-11-24T10:40:58.209Z,2.40
2022-11-24T10:43:28.281Z,2.63
2022-11-24T10:46:19.079Z,2.72
2022-11-24T10:49:06.448Z,1.90
2022-11-24T10:52:07.104Z,2.55
2022-11-24T10:54:36.064Z,2.40
2022-11-24T10:57:03.228Z,2.42
2022-11-24T10:59:36.741Z,2.47
2022-11-24T11:02:33.817Z,2.53
2022-11-24T11:05:26.425Z,2.15
2022-11-24T11:08:32.229Z,2.08
2022-11-24T11:11:16.772Z,2.55
2022-11-24T11:14:03.802Z,1.70
2022-11-24T11:16:41.664Z,2.30
2022-11-24T11:19:52.388Z,2.08
2022-11-24T11:22:28.942Z,2.05
2022-11-24T11:25:03.982Z,2.03
2022-11-24T11:27:30.804Z,2.03
2022-11-24T11:36:11.168Z,1.70
2022-11-24T11:38:40.666Z,2.08
2022-11-24T11:41:16.195Z,1.40
2022-11-24T11:43:45.754Z,1.60
2022-11-24T11:46:16.270Z,1.77
2022-11-24T11:48:46.846Z,1.65
2022-11-24T11:51:44.857Z,1.80
2022-11-24T11:54:11.627Z,1.85
2022-11-24T11:56:47.980Z,1.70
2022-11-24T11:59:23.829Z,1.67
2022-11-24T12:02:31.758Z,1.83
2022-11-24T12:05:33.502Z,1.50
2022-11-24T12:08:20.803Z,1.92
2022-11-24T12:10:58.272Z,1.73
2022-11-24T12:13:54.616Z,1.90
2022-11-24T12:16:46.570Z,1.63
2022-11-24T12:19:21.906Z,1.88
2022-11-24T12:22:38.860Z,1.38
2022-11-24T12:25:20.962Z,1.60
2022-11-24T12:27:56.574Z,1.40
2022-11-24T12:30:24.075Z,1.50
2022-11-24T12:33:29.488Z,1.20
2022-11-24T12:36:06.540Z,1.52
2022-11-24T12:38:42.417Z,1.50
2022-11-24T12:41:41.171Z,1.40
2022-11-24T12:44:38.129Z,1.30
2022-11-24T12:47:17.736Z,1.50
2022-11-24T12:49:56.450Z,1.30
2022-11-24T12:52:28.453Z,1.55
2022-11-24T12:54:56.504Z,1.48
2022-11-24T12:57:49.272Z,1.70
2022-11-24T13:00:16.499Z,1.40
2022-11-24T13:03:20.910Z,1.88
2022-11-24T13:06:20.293Z,1.60
2022-11-24T13:08:47.350Z,1.50
2022-11-24T13:11:23.295Z,1.45
2022-11-24T13:13:58.487Z,1.30
2022-11-24T13:16:59.289Z,1.50
2022-11-24T13:19:25.635Z,1.85
2022-11-24T13:22:15.283Z,2.08
2022-11-24T13:24:43.032Z,1.80
2022-11-24T13:27:15.942Z,1.95
2022-11-24T13:29:47.515Z,1.63
2022-11-24T13:32:17.686Z,1.52
2022-11-24T13:34:45.831Z,1.65
2022-11-24T13:37:34.508Z,1.50
2022-11-24T13:40:23.221Z,1.67
2022-11-24T13:42:56.482Z,1.30
2022-11-24T13:45:41.914Z,1.27
2022-11-24T13:48:21.744Z,1.60
2022-11-24T13:50:53.204Z,1.42
2022-11-24T13:53:40.788Z,1.50
2022-11-24T13:56:14.090Z,1.35
2022-11-24T13:58:42.747Z,1.67
2022-11-24T14:01:18.382Z,1.50
2022-11-24T14:06:51.444Z,1.20
2022-11-24T14:09:37.654Z,1.00
2022-11-24T14:12:13.313Z,1.10
2022-11-24T14:14:41.708Z,1.00
2022-11-24T14:17:23.475Z,1.10
2022-11-24T14:19:52.826Z,0.90
2022-11-24T14:22:36.882Z,0.95
2022-11-24T14:25:04.263Z,1.00
2022-11-24T14:27:36.748Z,0.80
2022-11-24T14:30:13.656Z,0.90
2022-11-24T14:32:40.654Z,0.75
2022-11-24T14:35:26.112Z,0.70
2022-11-24T14:37:53.243Z,0.70
2022-11-24T14:40:51.823Z,0.88
2022-11-24T14:43:22.362Z,0.85
2022-11-24T14:45:58.001Z,0.80
2022-11-24T14:48:31.339Z,0.80
2022-11-24T14:51:26.395Z,0.50
2022-11-24T14:53:58.037Z,0.70
2022-11-24T14:56:28.232Z,0.70
2022-11-24T14:58:56.985Z,0.60
2022-11-24T15:01:34.293Z,0.57
2022-11-24T15:07:29.329Z,1.00
2022-11-24T15:10:01.413Z,1.00
2022-11-24T15:12:43.282Z,1.05
2022-11-24T15:15:18.236Z,0.90
2022-11-24T15:17:57.588Z,0.90
2022-11-24T15:20:30.317Z,0.68
2022-11-24T15:23:15.912Z,0.70
2022-11-24T15:25:44.162Z,1.40
2022-11-24T15:28:12.001Z,1.27
2022-11-24T15:30:38.809Z,1.20
2022-11-24T15:33:16.618Z,1.20
2022-11-24T15:35:43.740Z,1.00
2022-11-24T15:38:10.803Z,1.10
2022-11-24T15:40:42.744Z,0.95
2022-11-24T15:43:21.505Z,0.93
2022-11-24T15:45:48.398Z,1.02
2022-11-24T15:48:18.214Z,0.70
2022-11-24T15:50:46.191Z,0.82
2022-11-24T15:53:21.238Z,0.70
2022-11-24T15:55:48.690Z,0.65
2022-11-24T15:58:16.190Z,1.80
2022-11-24T16:00:44.210Z,6.75
2022-11-24T16:03:44.568Z,9.15
2022-11-24T16:05:59.127Z,8.38
2022-11-24T16:08:25.877Z,5.00
2022-11-24T16:10:52.618Z,4.55
2022-11-24T16:13:19.337Z,4.50
2022-11-24T16:15:46.866Z,4.00
2022-11-24T16:18:15.649Z,3.08
2022-11-24T16:20:42.480Z,2.67
2022-11-24T16:23:09.417Z,2.50
2022-11-24T16:25:36.187Z,1.98
2022-11-24T16:28:02.916Z,2.08
2022-11-24T16:30:29.731Z,2.00
2022-11-24T16:32:56.981Z,1.65
2022-11-24T16:35:23.725Z,1.73
2022-11-24T16:37:50.528Z,1.55
2022-11-24T16:40:18.423Z,1.63
2022-11-24T16:42:45.356Z,1.50
2022-11-24T16:45:13.190Z,1.90
2022-11-24T16:47:41.630Z,1.98
2022-11-24T16:50:10.167Z,1.73
2022-11-24T16:52:37.619Z,1.70
2022-11-24T16:55:06.274Z,1.90
2022-11-24T16:57:33.038Z,2.08
2022-11-24T16:59:59.872Z,2.85
2022-11-24T17:02:26.732Z,3.47
2022-11-24T17:04:53.608Z,3.10
2022-11-24T17:07:20.660Z,3.17
2022-11-24T17:09:48.342Z,2.90
2022-11-24T17:12:15.078Z,2.58
2022-11-24T17:14:41.850Z,2.40
2022-11-24T17:17:08.739Z,2.30
2022-11-24T17:19:35.665Z,2.35
2022-11-24T17:22:02.360Z,2.40
2022-11-24T17:24:29.375Z,2.97
2022-11-24T17:26:56.284Z,2.67
2022-11-24T17:29:23.759Z,2.25
2022-11-24T17:31:51.217Z,2.53
2022-11-24T17:34:18.270Z,2.47
2022-11-24T17:36:46.012Z,3.17
2022-11-24T17:39:12.849Z,3.30
2022-11-24T17:41:39.680Z,3.00
2022-11-24T17:44:08.524Z,2.80
2022-11-24T17:46:37.054Z,2.33
2022-11-24T17:49:03.945Z,2.90
2022-11-24T17:51:30.661Z,2.50
2022-11-24T17:53:57.577Z,2.55
2022-11-24T17:56:27.004Z,2.40
2022-11-24T17:58:56.402Z,3.08
2022-11-24T18:01:23.922Z,2.85
2022-11-24T18:03:53.730Z,2.63
2022-11-24T18:06:24.143Z,3.05
2022-11-24T18:08:51.736Z,2.80
2022-11-24T18:11:24.640Z,2.13
2022-11-24T18:14:00.205Z,2.75
2022-11-24T18:16:29.880Z,2.67
2022-11-24T18:19:08.342Z,3.05
2022-11-24T18:21:36.092Z,2.72
2022-11-24T18:24:03.619Z,2.70
2022-11-24T18:26:30.454Z,3.00
2022-11-24T18:28:57.301Z,2.40
2022-11-24T18:31:24.190Z,2.97
2022-11-24T18:33:51.026Z,3.88
2022-11-24T18:36:23.596Z,3.42
2022-11-24T18:38:54.101Z,2.88
2022-11-24T18:41:22.316Z,3.72
2022-11-24T18:43:49.326Z,3.20
2022-11-24T18:46:17.739Z,3.30
2022-11-24T18:48:45.248Z,3.25
2022-11-24T18:51:16.077Z,3.72
2022-11-24T18:53:44.028Z,3.75
2022-11-24T18:56:16.305Z,3.63
2022-11-24T18:58:43.917Z,3.50
2022-11-24T19:01:20.058Z,3.03
2022-11-24T19:03:52.801Z,3.20
2022-11-24T19:06:28.996Z,3.67
2022-11-24T19:08:56.122Z,3.65
2022-11-24T19:11:25.512Z,3.50
2022-11-24T19:13:52.436Z,3.50
2022-11-24T19:16:20.685Z,3.22
2022-11-24T19:18:53.725Z,3.25
2022-11-24T19:21:21.693Z,3.22
2022-11-24T19:23:49.378Z,3.58
2022-11-24T19:26:16.221Z,3.90
2022-11-24T19:28:43.161Z,3.55
2022-11-24T19:31:13.772Z,3.83
2022-11-24T19:33:41.472Z,3.45
2022-11-24T19:36:13.132Z,3.63
2022-11-24T19:38:41.086Z,3.60
2022-11-24T19:41:10.493Z,3.40
2022-11-24T19:43:37.322Z,3.47
2022-11-24T19:46:13.222Z,3.17
2022-11-24T19:48:45.760Z,2.28
2022-11-24T19:51:18.771Z,2.67
2022-11-24T19:53:46.182Z,2.00
2022-11-24T19:56:16.268Z,2.45
2022-11-24T19:58:43.244Z,1.83
2022-11-24T20:01:16.179Z,2.33
2022-11-24T20:03:44.740Z,1.83
2022-11-24T20:06:13.090Z,1.80
2022-11-24T20:08:41.270Z,1.90
2022-11-24T20:11:16.724Z,2.25
2022-11-24T20:13:45.450Z,2.72
2022-11-24T20:16:15.236Z,3.13
2022-11-24T20:18:44.732Z,3.40
2022-11-24T20:21:14.542Z,2.85
2022-11-24T20:23:42.408Z,2.90
2022-11-24T20:26:14.897Z,2.72
2022-11-24T20:28:42.807Z,2.85
2022-11-24T20:31:12.638Z,2.75
2022-11-24T20:33:40.606Z,2.70
2022-11-24T20:36:10.534Z,2.60
2022-11-24T20:38:38.233Z,2.40
2022-11-24T20:41:11.100Z,3.00
2022-11-24T20:43:39.306Z,3.30
2022-11-24T20:46:10.210Z,3.25
2022-11-24T20:48:38.060Z,3.40
2022-11-24T20:51:17.322Z,3.55
2022-11-24T20:53:44.428Z,3.20
2022-11-24T20:56:17.789Z,3.80
2022-11-24T20:58:44.799Z,3.05
2022-11-24T21:01:14.837Z,3.42
2022-11-24T21:03:45.169Z,3.10
2022-11-24T21:06:13.473Z,3.00
2022-11-24T21:08:42.055Z,2.78
2022-11-24T21:11:11.425Z,3.03
2022-11-24T21:13:39.879Z,3.00
2022-11-24T21:16:25.312Z,2.90
2022-11-24T21:18:55.729Z,2.83
2022-11-24T21:21:24.156Z,3.13
2022-11-24T21:23:51.677Z,2.80
2022-11-24T21:26:19.478Z,3.20
2022-11-24T21:28:47.673Z,3.00
2022-11-24T21:31:17.439Z,3.00
2022-11-24T21:33:49.764Z,2.90
2022-11-24T21:36:19.384Z,2.67
2022-11-24T21:38:54.347Z,2.60
2022-11-24T21:41:22.985Z,2.70
2022-11-24T21:43:50.211Z,2.55
2022-11-24T21:46:17.295Z,2.55
2022-11-24T21:48:44.664Z,2.33
2022-11-24T21:51:17.083Z,2.50
2022-11-24T21:53:45.090Z,2.45
2022-11-24T21:56:20.579Z,2.38
2022-11-24T21:58:53.245Z,2.65
2022-11-24T22:01:22.962Z,2.92
2022-11-24T22:03:51.204Z,2.75
2022-11-24T22:06:19.513Z,2.83
2022-11-24T22:08:47.800Z,2.70
2022-11-24T22:11:22.761Z,2.63
2022-11-24T22:13:52.825Z,2.83
2022-11-24T22:16:24.228Z,2.55
2022-11-24T22:18:51.568Z,2.67
2022-11-24T22:21:22.323Z,2.47
2022-11-24T22:23:51.911Z,2.50
2022-11-24T22:26:34.262Z,2.22
2022-11-24T22:29:04.139Z,2.78
2022-11-24T22:31:45.451Z,2.85
2022-11-24T22:34:19.251Z,2.83
2022-11-24T22:36:46.011Z,2.80
2022-11-24T22:39:13.215Z,2.90
2022-11-24T22:41:40.045Z,2.70
2022-11-24T22:44:06.952Z,2.88
2022-11-24T22:46:33.885Z,2.60
2022-11-24T22:49:01.894Z,2.60
2022-11-24T22:51:31.357Z,2.75
2022-11-24T22:54:00.336Z,4.40
2022-11-24T22:56:32.402Z,4.03
2022-11-24T22:59:00.508Z,3.95
2022-11-24T23:01:29.148Z,4.35
2022-11-24T23:03:55.966Z,3.88
2022-11-24T23:06:25.715Z,3.80
2022-11-24T23:08:53.279Z,3.40
2022-11-24T23:11:31.573Z,3.40
2022-11-24T23:14:02.881Z,3.25
2022-11-24T23:16:30.150Z,2.67
2022-11-24T23:18:57.575Z,2.83
2022-11-24T23:21:29.601Z,3.08
2022-11-24T23:23:58.337Z,3.15
2022-11-24T23:26:31.009Z,3.55
2022-11-24T23:28:57.801Z,3.55
2022-11-24T23:31:29.267Z,3.92
2022-11-24T23:34:01.397Z,4.03
2022-11-24T23:36:28.941Z,3.40
2022-11-24T23:38:55.992Z,3.55
2022-11-24T23:41:25.226Z,3.25
2022-11-24T23:43:52.823Z,3.10
2022-11-24T23:46:22.127Z,2.90
2022-11-24T23:48:50.440Z,2.65
2022-11-24T23:51:22.664Z,2.80
2022-11-24T23:53:49.942Z,2.80
2022-11-24T23:56:21.903Z,2.78
2022-11-24T23:58:49.360Z,2.72
